sensor_id;sensor_type;location;lat;lon;timestamp;P1;durP1;ratioP1;P2;durP2;ratioP2
8177;SDS011;4130;48.740;9.132;2023-05-10T00:01:34;0.10;;;0.10;;
8177;SDS011;4130;48.740;9.132;2023-05-10T00:04:01;0.20;;;0.20;;
8177;SDS011;4130;48.740;9.132;2023-05-10T00:06:28;0.03;;;0.03;;
8177;SDS011;4130;48.740;9.132;2023-05-10T00:08:55;0.00;;;0.00;;
8177;SDS011;4130;48.740;9.132;2023-05-10T00:11:23;0.10;;;0.00;;
8177;SDS011;4130;48.740;9.132;2023-05-10T00:13:50;0.10;;;0.10;;
8177;SDS011;4130;48.740;9.132;2023-05-10T00:16:18;0.07;;;0.07;;
8177;SDS011;4130;48.740;9.132;2023-05-10T00:18:46;0.10;;;0.10;;
8177;SDS011;4130;48.740;9.132;2023-05-10T00:21:13;0.10;;;0.10;;
8177;SDS011;4130;48.740;9.132;2023-05-10T00:23:40;0.00;;;0.00;;
8177;SDS011;4130;48.740;9.132;2023-05-10T00:26:07;0.20;;;0.20;;
8177;SDS011;4130;48.740;9.132;2023-05-10T00:28:35;0.20;;;0.20;;
8177;SDS011;4130;48.740;9.132;2023-05-10T00:31:01;0.10;;;0.10;;
8177;SDS011;4130;48.740;9.132;2023-05-10T00:33:28;0.00;;;0.00;;
8177;SDS011;4130;48.740;9.132;2023-05-10T00:35:55;0.10;;;0.10;;
8177;SDS011;4130;48.740;9.132;2023-05-10T00:38:22;0.10;;;0.10;;
8177;SDS011;4130;48.740;9.132;2023-05-10T00:40:49;0.07;;;0.00;;
8177;SDS011;4130;48.740;9.132;2023-05-10T00:43:16;0.00;;;0.00;;
8177;SDS011;4130;48.740;9.132;2023-05-10T00:45:44;0.00;;;0.00;;
8177;SDS011;4130;48.740;9.132;2023-05-10T00:48:11;0.13;;;0.07;;
8177;SDS011;4130;48.740;9.132;2023-05-10T00:50:39;0.53;;;0.53;;
8177;SDS011;4130;48.740;9.132;2023-05-10T00:53:06;0.07;;;0.07;;
8177;SDS011;4130;48.740;9.132;2023-05-10T00:55:35;0.00;;;0.00;;
8177;SDS011;4130;48.740;9.132;2023-05-10T00:58:02;0.00;;;0.00;;
8177;SDS011;4130;48.740;9.132;2023-05-10T01:00:29;0.00;;;0.00;;
8177;SDS011;4130;48.740;9.132;2023-05-10T01:03:02;0.00;;;0.00;;
8177;SDS011;4130;48.740;9.132;2023-05-10T01:05:29;0.00;;;0.00;;
8177;SDS011;4130;48.740;9.132;2023-05-10T01:07:56;0.10;;;0.10;;
8177;SDS011;4130;48.740;9.132;2023-05-10T01:10:23;0.00;;;0.00;;
8177;SDS011;4130;48.740;9.132;2023-05-10T01:12:50;0.00;;;0.00;;
8177;SDS011;4130;48.740;9.132;2023-05-10T01:15:17;0.00;;;0.00;;
8177;SDS011;4130;48.740;9.132;2023-05-10T01:17:45;0.00;;;0.00;;
8177;SDS011;4130;48.740;9.132;2023-05-10T01:20:14;0.00;;;0.00;;
8177;SDS011;4130;48.740;9.132;2023-05-10T01:22:51;0.00;;;0.00;;
8177;SDS011;4130;48.740;9.132;2023-05-10T01:25:40;0.00;;;0.00;;
8177;SDS011;4130;48.740;9.132;2023-05-10T01:31:18;0.10;;;0.10;;
8177;SDS011;4130;48.740;9.132;2023-05-10T01:33:55;0.10;;;0.10;;
8177;SDS011;4130;48.740;9.132;2023-05-10T01:36:26;0.00;;;0.00;;
8177;SDS011;4130;48.740;9.132;2023-05-10T01:38:58;0.00;;;0.00;;
8177;SDS011;4130;48.740;9.132;2023-05-10T01:41:34;0.10;;;0.10;;
8177;SDS011;4130;48.740;9.132;2023-05-10T01:44:11;0.00;;;0.00;;
8177;SDS011;4130;48.740;9.132;2023-05-10T01:46:44;0.00;;;0.00;;
8177;SDS011;4130;48.740;9.132;2023-05-10T01:49:20;0.00;;;0.00;;
8177;SDS011;4130;48.740;9.132;2023-05-10T01:51:53;0.00;;;0.00;;
8177;SDS011;4130;48.740;9.132;2023-05-10T01:54:25;0.03;;;0.03;;
8177;SDS011;4130;48.740;9.132;2023-05-10T01:56:55;0.00;;;0.00;;
8177;SDS011;4130;48.740;9.132;2023-05-10T01:59:28;0.00;;;0.00;;
8177;SDS011;4130;48.740;9.132;2023-05-10T02:02:01;0.00;;;0.00;;
8177;SDS011;4130;48.740;9.132;2023-05-10T02:04:32;0.00;;;0.00;;
8177;SDS011;4130;48.740;9.132;2023-05-10T02:07:01;0.07;;;0.07;;
8177;SDS011;4130;48.740;9.132;2023-05-10T02:09:28;0.00;;;0.00;;
8177;SDS011;4130;48.740;9.132;2023-05-10T02:11:59;0.00;;;0.00;;
8177;SDS011;4130;48.740;9.132;2023-05-10T02:14:28;0.00;;;0.00;;
8177;SDS011;4130;48.740;9.132;2023-05-10T02:16:58;0.07;;;0.07;;
8177;SDS011;4130;48.740;9.132;2023-05-10T02:19:25;0.00;;;0.00;;
8177;SDS011;4130;48.740;9.132;2023-05-10T02:21:56;0.00;;;0.00;;
8177;SDS011;4130;48.740;9.132;2023-05-10T02:24:24;0.00;;;0.00;;
8177;SDS011;4130;48.740;9.132;2023-05-10T02:26:53;0.10;;;0.10;;
8177;SDS011;4130;48.740;9.132;2023-05-10T02:29:21;0.00;;;0.00;;
8177;SDS011;4130;48.740;9.132;2023-05-10T02:31:49;0.00;;;0.00;;
8177;SDS011;4130;48.740;9.132;2023-05-10T02:34:19;0.00;;;0.00;;
8177;SDS011;4130;48.740;9.132;2023-05-10T02:36:47;0.43;;;0.10;;
8177;SDS011;4130;48.740;9.132;2023-05-10T02:39:15;0.00;;;0.00;;
8177;SDS011;4130;48.740;9.132;2023-05-10T02:41:45;0.00;;;0.00;;
8177;SDS011;4130;48.740;9.132;2023-05-10T02:44:12;0.00;;;0.00;;
8177;SDS011;4130;48.740;9.132;2023-05-10T02:46:41;0.07;;;0.00;;
8177;SDS011;4130;48.740;9.132;2023-05-10T02:49:08;0.00;;;0.00;;
8177;SDS011;4130;48.740;9.132;2023-05-10T02:51:35;0.00;;;0.00;;
8177;SDS011;4130;48.740;9.132;2023-05-10T02:54:09;0.00;;;0.00;;
8177;SDS011;4130;48.740;9.132;2023-05-10T02:56:42;0.00;;;0.00;;
8177;SDS011;4130;48.740;9.132;2023-05-10T02:59:14;0.10;;;0.10;;
8177;SDS011;4130;48.740;9.132;2023-05-10T03:01:41;0.00;;;0.00;;
8177;SDS011;4130;48.740;9.132;2023-05-10T03:04:08;0.00;;;0.00;;
8177;SDS011;4130;48.740;9.132;2023-05-10T03:06:34;0.00;;;0.00;;
8177;SDS011;4130;48.740;9.132;2023-05-10T03:09:01;0.10;;;0.10;;
8177;SDS011;4130;48.740;9.132;2023-05-10T03:11:32;0.10;;;0.10;;
8177;SDS011;4130;48.740;9.132;2023-05-10T03:14:14;0.00;;;0.00;;
8177;SDS011;4130;48.740;9.132;2023-05-10T03:16:51;0.17;;;0.17;;
8177;SDS011;4130;48.740;9.132;2023-05-10T03:19:22;0.10;;;0.10;;
8177;SDS011;4130;48.740;9.132;2023-05-10T03:21:53;0.17;;;0.17;;
8177;SDS011;4130;48.740;9.132;2023-05-10T03:24:26;0.10;;;0.10;;
8177;SDS011;4130;48.740;9.132;2023-05-10T03:26:56;0.13;;;0.13;;
8177;SDS011;4130;48.740;9.132;2023-05-10T03:29:27;0.10;;;0.10;;
8177;SDS011;4130;48.740;9.132;2023-05-10T03:31:57;0.20;;;0.20;;
8177;SDS011;4130;48.740;9.132;2023-05-10T03:34:24;0.20;;;0.20;;
8177;SDS011;4130;48.740;9.132;2023-05-10T03:36:57;0.17;;;0.17;;
8177;SDS011;4130;48.740;9.132;2023-05-10T03:39:25;0.20;;;0.20;;
8177;SDS011;4130;48.740;9.132;2023-05-10T03:41:54;0.30;;;0.30;;
8177;SDS011;4130;48.740;9.132;2023-05-10T03:44:22;0.20;;;0.20;;
8177;SDS011;4130;48.740;9.132;2023-05-10T03:46:49;0.30;;;0.30;;
8177;SDS011;4130;48.740;9.132;2023-05-10T03:49:16;0.50;;;0.50;;
8177;SDS011;4130;48.740;9.132;2023-05-10T03:51:43;0.30;;;0.30;;
8177;SDS011;4130;48.740;9.132;2023-05-10T03:54:10;0.37;;;0.37;;
8177;SDS011;4130;48.740;9.132;2023-05-10T03:56:37;0.50;;;0.30;;
8177;SDS011;4130;48.740;9.132;2023-05-10T03:59:06;0.20;;;0.20;;
8177;SDS011;4130;48.740;9.132;2023-05-10T04:01:34;0.30;;;0.30;;
8177;SDS011;4130;48.740;9.132;2023-05-10T04:04:01;0.10;;;0.10;;
8177;SDS011;4130;48.740;9.132;2023-05-10T04:06:28;0.20;;;0.20;;
8177;SDS011;4130;48.740;9.132;2023-05-10T04:08:54;0.20;;;0.13;;
8177;SDS011;4130;48.740;9.132;2023-05-10T04:11:24;0.20;;;0.20;;
8177;SDS011;4130;48.740;9.132;2023-05-10T04:13:51;0.27;;;0.20;;
8177;SDS011;4130;48.740;9.132;2023-05-10T04:16:20;0.30;;;0.30;;
8177;SDS011;4130;48.740;9.132;2023-05-10T04:18:47;0.77;;;0.20;;
8177;SDS011;4130;48.740;9.132;2023-05-10T04:21:14;0.10;;;0.10;;
8177;SDS011;4130;48.740;9.132;2023-05-10T04:23:41;0.30;;;0.30;;
8177;SDS011;4130;48.740;9.132;2023-05-10T04:26:08;0.30;;;0.30;;
8177;SDS011;4130;48.740;9.132;2023-05-10T04:28:42;0.13;;;0.13;;
8177;SDS011;4130;48.740;9.132;2023-05-10T04:31:11;0.00;;;0.00;;
8177;SDS011;4130;48.740;9.132;2023-05-10T04:33:39;0.20;;;0.20;;
8177;SDS011;4130;48.740;9.132;2023-05-10T04:36:06;0.10;;;0.10;;
8177;SDS011;4130;48.740;9.132;2023-05-10T04:38:34;0.20;;;0.20;;
8177;SDS011;4130;48.740;9.132;2023-05-10T04:41:03;0.30;;;0.30;;
8177;SDS011;4130;48.740;9.132;2023-05-10T04:43:31;0.30;;;0.30;;
8177;SDS011;4130;48.740;9.132;2023-05-10T04:46:01;0.20;;;0.20;;
8177;SDS011;4130;48.740;9.132;2023-05-10T04:48:28;0.00;;;0.00;;
8177;SDS011;4130;48.740;9.132;2023-05-10T04:50:57;0.30;;;0.30;;
8177;SDS011;4130;48.740;9.132;2023-05-10T04:53:24;0.20;;;0.20;;
8177;SDS011;4130;48.740;9.132;2023-05-10T04:55:52;0.20;;;0.20;;
8177;SDS011;4130;48.740;9.132;2023-05-10T04:58:19;0.30;;;0.20;;
8177;SDS011;4130;48.740;9.132;2023-05-10T05:00:46;0.20;;;0.20;;
8177;SDS011;4130;48.740;9.132;2023-05-10T05:03:15;0.30;;;0.30;;
8177;SDS011;4130;48.740;9.132;2023-05-10T05:05:41;0.30;;;0.30;;
8177;SDS011;4130;48.740;9.132;2023-05-10T05:08:14;0.23;;;0.23;;
8177;SDS011;4130;48.740;9.132;2023-05-10T05:10:40;0.47;;;0.20;;
8177;SDS011;4130;48.740;9.132;2023-05-10T05:13:07;0.07;;;0.07;;
8177;SDS011;4130;48.740;9.132;2023-05-10T05:15:34;0.23;;;0.23;;
8177;SDS011;4130;48.740;9.132;2023-05-10T05:18:01;0.30;;;0.30;;
8177;SDS011;4130;48.740;9.132;2023-05-10T05:20:31;0.30;;;0.30;;
8177;SDS011;4130;48.740;9.132;2023-05-10T05:22:59;0.40;;;0.40;;
8177;SDS011;4130;48.740;9.132;2023-05-10T05:25:29;0.30;;;0.30;;
8177;SDS011;4130;48.740;9.132;2023-05-10T05:27:55;2.20;;;0.40;;
8177;SDS011;4130;48.740;9.132;2023-05-10T05:30:22;0.30;;;0.30;;
8177;SDS011;4130;48.740;9.132;2023-05-10T05:32:49;0.40;;;0.40;;
8177;SDS011;4130;48.740;9.132;2023-05-10T05:35:16;0.30;;;0.30;;
8177;SDS011;4130;48.740;9.132;2023-05-10T05:37:43;0.20;;;0.20;;
8177;SDS011;4130;48.740;9.132;2023-05-10T05:40:12;0.40;;;0.40;;
8177;SDS011;4130;48.740;9.132;2023-05-10T05:42:41;0.50;;;0.50;;
8177;SDS011;4130;48.740;9.132;2023-05-10T05:45:08;0.47;;;0.47;;
8177;SDS011;4130;48.740;9.132;2023-05-10T05:47:39;0.30;;;0.30;;
8177;SDS011;4130;48.740;9.132;2023-05-10T05:50:07;0.30;;;0.30;;
8177;SDS011;4130;48.740;9.132;2023-05-10T05:52:35;0.40;;;0.40;;
8177;SDS011;4130;48.740;9.132;2023-05-10T05:55:02;0.40;;;0.40;;
8177;SDS011;4130;48.740;9.132;2023-05-10T05:57:29;0.60;;;0.60;;
8177;SDS011;4130;48.740;9.132;2023-05-10T05:59:57;0.40;;;0.40;;
8177;SDS011;4130;48.740;9.132;2023-05-10T06:02:24;0.40;;;0.40;;
8177;SDS011;4130;48.740;9.132;2023-05-10T06:04:51;0.30;;;0.30;;
8177;SDS011;4130;48.740;9.132;2023-05-10T06:07:18;0.40;;;0.40;;
8177;SDS011;4130;48.740;9.132;2023-05-10T06:09:45;0.40;;;0.40;;
8177;SDS011;4130;48.740;9.132;2023-05-10T06:12:12;0.83;;;0.70;;
8177;SDS011;4130;48.740;9.132;2023-05-10T06:14:38;0.60;;;0.60;;
8177;SDS011;4130;48.740;9.132;2023-05-10T06:17:06;0.43;;;0.40;;
8177;SDS011;4130;48.740;9.132;2023-05-10T06:19:33;0.40;;;0.40;;
8177;SDS011;4130;48.740;9.132;2023-05-10T06:22:01;0.40;;;0.40;;
8177;SDS011;4130;48.740;9.132;2023-05-10T06:24:28;0.47;;;0.47;;
8177;SDS011;4130;48.740;9.132;2023-05-10T06:26:56;0.40;;;0.40;;
8177;SDS011;4130;48.740;9.132;2023-05-10T06:29:25;0.50;;;0.40;;
8177;SDS011;4130;48.740;9.132;2023-05-10T06:31:51;0.50;;;0.50;;
8177;SDS011;4130;48.740;9.132;2023-05-10T06:34:20;0.50;;;0.50;;
8177;SDS011;4130;48.740;9.132;2023-05-10T06:36:49;0.50;;;0.50;;
8177;SDS011;4130;48.740;9.132;2023-05-10T06:39:16;0.30;;;0.30;;
8177;SDS011;4130;48.740;9.132;2023-05-10T06:41:43;0.70;;;0.70;;
8177;SDS011;4130;48.740;9.132;2023-05-10T06:44:10;0.50;;;0.50;;
8177;SDS011;4130;48.740;9.132;2023-05-10T06:46:38;0.50;;;0.50;;
8177;SDS011;4130;48.740;9.132;2023-05-10T06:49:09;0.67;;;0.67;;
8177;SDS011;4130;48.740;9.132;2023-05-10T06:51:38;0.40;;;0.40;;
8177;SDS011;4130;48.740;9.132;2023-05-10T06:54:06;0.57;;;0.57;;
8177;SDS011;4130;48.740;9.132;2023-05-10T06:56:33;0.53;;;0.53;;
8177;SDS011;4130;48.740;9.132;2023-05-10T06:59:00;0.43;;;0.43;;
8177;SDS011;4130;48.740;9.132;2023-05-10T07:01:27;0.83;;;0.50;;
8177;SDS011;4130;48.740;9.132;2023-05-10T07:03:54;0.60;;;0.60;;
8177;SDS011;4130;48.740;9.132;2023-05-10T07:06:21;0.77;;;0.70;;
8177;SDS011;4130;48.740;9.132;2023-05-10T07:08:49;0.53;;;0.53;;
8177;SDS011;4130;48.740;9.132;2023-05-10T07:11:16;0.60;;;0.57;;
8177;SDS011;4130;48.740;9.132;2023-05-10T07:13:43;0.70;;;0.70;;
8177;SDS011;4130;48.740;9.132;2023-05-10T07:16:12;0.40;;;0.40;;
8177;SDS011;4130;48.740;9.132;2023-05-10T07:18:40;0.50;;;0.50;;
8177;SDS011;4130;48.740;9.132;2023-05-10T07:21:06;0.40;;;0.40;;
8177;SDS011;4130;48.740;9.132;2023-05-10T07:23:33;0.60;;;0.60;;
8177;SDS011;4130;48.740;9.132;2023-05-10T07:26:01;0.43;;;0.43;;
8177;SDS011;4130;48.740;9.132;2023-05-10T07:28:29;0.55;;;0.55;;
8177;SDS011;4130;48.740;9.132;2023-05-10T07:30:56;0.60;;;0.60;;
8177;SDS011;4130;48.740;9.132;2023-05-10T07:33:23;0.50;;;0.50;;
8177;SDS011;4130;48.740;9.132;2023-05-10T07:35:53;0.95;;;0.68;;
8177;SDS011;4130;48.740;9.132;2023-05-10T07:38:20;0.43;;;0.43;;
8177;SDS011;4130;48.740;9.132;2023-05-10T07:40:48;0.30;;;0.30;;
8177;SDS011;4130;48.740;9.132;2023-05-10T07:43:18;0.20;;;0.20;;
8177;SDS011;4130;48.740;9.132;2023-05-10T07:45:45;0.50;;;0.50;;
8177;SDS011;4130;48.740;9.132;2023-05-10T07:48:11;0.40;;;0.40;;
8177;SDS011;4130;48.740;9.132;2023-05-10T07:50:38;0.38;;;0.38;;
8177;SDS011;4130;48.740;9.132;2023-05-10T07:53:05;0.57;;;0.57;;
8177;SDS011;4130;48.740;9.132;2023-05-10T07:55:33;0.50;;;0.50;;
8177;SDS011;4130;48.740;9.132;2023-05-10T07:58:01;0.32;;;0.32;;
8177;SDS011;4130;48.740;9.132;2023-05-10T08:00:29;0.40;;;0.40;;
8177;SDS011;4130;48.740;9.132;2023-05-10T08:02:56;0.45;;;0.45;;
8177;SDS011;4130;48.740;9.132;2023-05-10T08:05:23;0.20;;;0.20;;
8177;SDS011;4130;48.740;9.132;2023-05-10T08:07:50;0.22;;;0.22;;
8177;SDS011;4130;48.740;9.132;2023-05-10T08:10:16;0.20;;;0.20;;
8177;SDS011;4130;48.740;9.132;2023-05-10T08:12:43;0.28;;;0.28;;
8177;SDS011;4130;48.740;9.132;2023-05-10T08:15:10;0.20;;;0.20;;
8177;SDS011;4130;48.740;9.132;2023-05-10T08:17:40;0.17;;;0.17;;
8177;SDS011;4130;48.740;9.132;2023-05-10T08:20:08;0.32;;;0.30;;
8177;SDS011;4130;48.740;9.132;2023-05-10T08:22:36;0.40;;;0.40;;
8177;SDS011;4130;48.740;9.132;2023-05-10T08:25:03;0.30;;;0.30;;
8177;SDS011;4130;48.740;9.132;2023-05-10T08:27:31;0.40;;;0.40;;
8177;SDS011;4130;48.740;9.132;2023-05-10T08:29:57;0.35;;;0.35;;
8177;SDS011;4130;48.740;9.132;2023-05-10T08:32:25;0.40;;;0.40;;
8177;SDS011;4130;48.740;9.132;2023-05-10T08:34:53;0.20;;;0.20;;
8177;SDS011;4130;48.740;9.132;2023-05-10T08:37:21;0.10;;;0.10;;
8177;SDS011;4130;48.740;9.132;2023-05-10T08:39:49;0.43;;;0.43;;
8177;SDS011;4130;48.740;9.132;2023-05-10T08:42:16;0.43;;;0.40;;
8177;SDS011;4130;48.740;9.132;2023-05-10T08:44:48;0.40;;;0.38;;
8177;SDS011;4130;48.740;9.132;2023-05-10T08:47:16;0.22;;;0.22;;
8177;SDS011;4130;48.740;9.132;2023-05-10T08:49:45;0.50;;;0.50;;
8177;SDS011;4130;48.740;9.132;2023-05-10T08:52:17;0.30;;;0.30;;
8177;SDS011;4130;48.740;9.132;2023-05-10T08:54:44;0.40;;;0.40;;
8177;SDS011;4130;48.740;9.132;2023-05-10T08:57:11;0.15;;;0.15;;
8177;SDS011;4130;48.740;9.132;2023-05-10T08:59:38;1.08;;;0.40;;
8177;SDS011;4130;48.740;9.132;2023-05-10T09:02:06;0.32;;;0.30;;
8177;SDS011;4130;48.740;9.132;2023-05-10T09:04:34;0.40;;;0.40;;
8177;SDS011;4130;48.740;9.132;2023-05-10T09:07:01;0.20;;;0.20;;
8177;SDS011;4130;48.740;9.132;2023-05-10T09:09:29;0.20;;;0.20;;
8177;SDS011;4130;48.740;9.132;2023-05-10T09:11:57;0.15;;;0.15;;
8177;SDS011;4130;48.740;9.132;2023-05-10T09:14:24;0.20;;;0.17;;
8177;SDS011;4130;48.740;9.132;2023-05-10T09:16:51;0.20;;;0.20;;
8177;SDS011;4130;48.740;9.132;2023-05-10T09:19:19;0.38;;;0.30;;
8177;SDS011;4130;48.740;9.132;2023-05-10T09:21:45;0.13;;;0.13;;
8177;SDS011;4130;48.740;9.132;2023-05-10T09:24:13;0.30;;;0.30;;
8177;SDS011;4130;48.740;9.132;2023-05-10T09:29:25;0.30;;;0.30;;
8177;SDS011;4130;48.740;9.132;2023-05-10T09:31:52;0.30;;;0.30;;
8177;SDS011;4130;48.740;9.132;2023-05-10T09:34:20;0.20;;;0.20;;
8177;SDS011;4130;48.740;9.132;2023-05-10T09:36:55;0.15;;;0.15;;
8177;SDS011;4130;48.740;9.132;2023-05-10T09:39:29;0.25;;;0.25;;
8177;SDS011;4130;48.740;9.132;2023-05-10T09:41:59;0.28;;;0.28;;
8177;SDS011;4130;48.740;9.132;2023-05-10T09:44:28;0.30;;;0.30;;
8177;SDS011;4130;48.740;9.132;2023-05-10T09:46:56;0.15;;;0.15;;
8177;SDS011;4130;48.740;9.132;2023-05-10T09:49:23;0.47;;;0.30;;
8177;SDS011;4130;48.740;9.132;2023-05-10T09:52:00;0.30;;;0.30;;
8177;SDS011;4130;48.740;9.132;2023-05-10T09:54:28;0.65;;;0.30;;
8177;SDS011;4130;48.740;9.132;2023-05-10T09:56:55;0.20;;;0.20;;
8177;SDS011;4130;48.740;9.132;2023-05-10T09:59:26;0.30;;;0.30;;
8177;SDS011;4130;48.740;9.132;2023-05-10T10:01:55;0.00;;;0.00;;
8177;SDS011;4130;48.740;9.132;2023-05-10T10:04:23;0.43;;;0.20;;
8177;SDS011;4130;48.740;9.132;2023-05-10T10:07:00;0.13;;;0.13;;
8177;SDS011;4130;48.740;9.132;2023-05-10T10:09:29;0.13;;;0.13;;
8177;SDS011;4130;48.740;9.132;2023-05-10T10:11:58;0.10;;;0.10;;
8177;SDS011;4130;48.740;9.132;2023-05-10T10:14:27;0.03;;;0.03;;
8177;SDS011;4130;48.740;9.132;2023-05-10T10:16:55;0.10;;;0.10;;
8177;SDS011;4130;48.740;9.132;2023-05-10T10:19:22;0.13;;;0.13;;
8177;SDS011;4130;48.740;9.132;2023-05-10T10:21:49;0.10;;;0.10;;
8177;SDS011;4130;48.740;9.132;2023-05-10T10:24:16;0.30;;;0.30;;
8177;SDS011;4130;48.740;9.132;2023-05-10T10:26:43;0.20;;;0.20;;
8177;SDS011;4130;48.740;9.132;2023-05-10T10:29:16;1.52;;;0.30;;
8177;SDS011;4130;48.740;9.132;2023-05-10T10:31:52;0.85;;;0.40;;
8177;SDS011;4130;48.740;9.132;2023-05-10T10:34:28;1.17;;;0.30;;
8177;SDS011;4130;48.740;9.132;2023-05-10T10:36:57;0.55;;;0.35;;
8177;SDS011;4130;48.740;9.132;2023-05-10T10:39:29;0.20;;;0.20;;
8177;SDS011;4130;48.740;9.132;2023-05-10T10:41:58;0.30;;;0.30;;
8177;SDS011;4130;48.740;9.132;2023-05-10T10:44:26;0.28;;;0.20;;
8177;SDS011;4130;48.740;9.132;2023-05-10T10:47:02;0.10;;;0.10;;
8177;SDS011;4130;48.740;9.132;2023-05-10T10:50:04;0.20;;;0.20;;
8177;SDS011;4130;48.740;9.132;2023-05-10T10:52:32;0.17;;;0.17;;
8177;SDS011;4130;48.740;9.132;2023-05-10T10:55:00;0.20;;;0.20;;
8177;SDS011;4130;48.740;9.132;2023-05-10T10:57:35;0.20;;;0.20;;
8177;SDS011;4130;48.740;9.132;2023-05-10T11:00:26;0.55;;;0.10;;
8177;SDS011;4130;48.740;9.132;2023-05-10T11:02:59;0.38;;;0.20;;
8177;SDS011;4130;48.740;9.132;2023-05-10T11:05:39;0.30;;;0.22;;
8177;SDS011;4130;48.740;9.132;2023-05-10T11:08:08;0.32;;;0.32;;
8177;SDS011;4130;48.740;9.132;2023-05-10T11:10:37;0.40;;;0.40;;
8177;SDS011;4130;48.740;9.132;2023-05-10T11:13:05;0.20;;;0.20;;
8177;SDS011;4130;48.740;9.132;2023-05-10T11:15:33;0.20;;;0.20;;
8177;SDS011;4130;48.740;9.132;2023-05-10T11:20:49;0.10;;;0.10;;
8177;SDS011;4130;48.740;9.132;2023-05-10T11:23:17;0.30;;;0.30;;
8177;SDS011;4130;48.740;9.132;2023-05-10T11:25:45;0.38;;;0.38;;
8177;SDS011;4130;48.740;9.132;2023-05-10T11:28:12;0.10;;;0.10;;
8177;SDS011;4130;48.740;9.132;2023-05-10T11:30:39;0.28;;;0.28;;
8177;SDS011;4130;48.740;9.132;2023-05-10T11:33:07;0.22;;;0.22;;
8177;SDS011;4130;48.740;9.132;2023-05-10T11:35:39;0.20;;;0.20;;
8177;SDS011;4130;48.740;9.132;2023-05-10T11:38:06;0.40;;;0.40;;
8177;SDS011;4130;48.740;9.132;2023-05-10T11:40:35;0.10;;;0.10;;
8177;SDS011;4130;48.740;9.132;2023-05-10T11:43:02;0.30;;;0.30;;
8177;SDS011;4130;48.740;9.132;2023-05-10T11:45:31;1.45;;;0.20;;
8177;SDS011;4130;48.740;9.132;2023-05-10T11:47:59;0.50;;;0.40;;
8177;SDS011;4130;48.740;9.132;2023-05-10T11:50:26;0.30;;;0.30;;
8177;SDS011;4130;48.740;9.132;2023-05-10T11:52:56;0.30;;;0.30;;
8177;SDS011;4130;48.740;9.132;2023-05-10T11:55:23;0.20;;;0.20;;
8177;SDS011;4130;48.740;9.132;2023-05-10T11:57:51;0.30;;;0.30;;
8177;SDS011;4130;48.740;9.132;2023-05-10T12:00:19;0.50;;;0.50;;
8177;SDS011;4130;48.740;9.132;2023-05-10T12:02:46;0.65;;;0.50;;
8177;SDS011;4130;48.740;9.132;2023-05-10T12:05:13;0.93;;;0.38;;
8177;SDS011;4130;48.740;9.132;2023-05-10T12:07:40;0.20;;;0.20;;
8177;SDS011;4130;48.740;9.132;2023-05-10T12:10:08;0.20;;;0.20;;
8177;SDS011;4130;48.740;9.132;2023-05-10T12:12:39;0.50;;;0.50;;
8177;SDS011;4130;48.740;9.132;2023-05-10T12:15:12;0.30;;;0.30;;
8177;SDS011;4130;48.740;9.132;2023-05-10T12:17:44;0.38;;;0.38;;
8177;SDS011;4130;48.740;9.132;2023-05-10T12:20:15;0.38;;;0.38;;
8177;SDS011;4130;48.740;9.132;2023-05-10T12:22:52;0.75;;;0.45;;
8177;SDS011;4130;48.740;9.132;2023-05-10T12:25:22;0.30;;;0.30;;
8177;SDS011;4130;48.740;9.132;2023-05-10T12:27:53;0.45;;;0.40;;
8177;SDS011;4130;48.740;9.132;2023-05-10T12:30:21;0.55;;;0.40;;
8177;SDS011;4130;48.740;9.132;2023-05-10T12:32:49;0.40;;;0.40;;
8177;SDS011;4130;48.740;9.132;2023-05-10T12:35:16;0.45;;;0.45;;
8177;SDS011;4130;48.740;9.132;2023-05-10T12:37:47;0.43;;;0.43;;
8177;SDS011;4130;48.740;9.132;2023-05-10T12:40:14;0.47;;;0.47;;
8177;SDS011;4130;48.740;9.132;2023-05-10T12:42:42;0.40;;;0.40;;
8177;SDS011;4130;48.740;9.132;2023-05-10T12:45:11;0.60;;;0.40;;
8177;SDS011;4130;48.740;9.132;2023-05-10T12:47:38;0.50;;;0.50;;
8177;SDS011;4130;48.740;9.132;2023-05-10T12:50:05;0.20;;;0.20;;
8177;SDS011;4130;48.740;9.132;2023-05-10T12:52:32;1.42;;;0.70;;
8177;SDS011;4130;48.740;9.132;2023-05-10T12:54:59;0.35;;;0.30;;
8177;SDS011;4130;48.740;9.132;2023-05-10T12:57:28;1.15;;;0.40;;
8177;SDS011;4130;48.740;9.132;2023-05-10T12:59:56;0.47;;;0.47;;
8177;SDS011;4130;48.740;9.132;2023-05-10T13:02:23;1.88;;;0.60;;
8177;SDS011;4130;48.740;9.132;2023-05-10T13:04:50;1.52;;;0.50;;
8177;SDS011;4130;48.740;9.132;2023-05-10T13:07:17;0.68;;;0.50;;
8177;SDS011;4130;48.740;9.132;2023-05-10T13:09:44;4.38;;;1.20;;
8177;SDS011;4130;48.740;9.132;2023-05-10T13:12:12;1.55;;;0.63;;
8177;SDS011;4130;48.740;9.132;2023-05-10T13:14:39;0.30;;;0.30;;
8177;SDS011;4130;48.740;9.132;2023-05-10T13:17:07;2.53;;;0.30;;
8177;SDS011;4130;48.740;9.132;2023-05-10T13:19:34;0.55;;;0.55;;
8177;SDS011;4130;48.740;9.132;2023-05-10T13:22:01;0.93;;;0.50;;
8177;SDS011;4130;48.740;9.132;2023-05-10T13:24:28;0.50;;;0.50;;
8177;SDS011;4130;48.740;9.132;2023-05-10T13:26:56;1.23;;;0.60;;
8177;SDS011;4130;48.740;9.132;2023-05-10T13:29:24;0.50;;;0.50;;
8177;SDS011;4130;48.740;9.132;2023-05-10T13:31:51;1.00;;;0.40;;
8177;SDS011;4130;48.740;9.132;2023-05-10T13:34:19;0.40;;;0.40;;
8177;SDS011;4130;48.740;9.132;2023-05-10T13:36:46;0.40;;;0.40;;
8177;SDS011;4130;48.740;9.132;2023-05-10T13:39:16;0.32;;;0.32;;
8177;SDS011;4130;48.740;9.132;2023-05-10T13:41:42;0.40;;;0.40;;
8177;SDS011;4130;48.740;9.132;2023-05-10T13:44:11;0.40;;;0.40;;
8177;SDS011;4130;48.740;9.132;2023-05-10T13:46:39;0.20;;;0.20;;
8177;SDS011;4130;48.740;9.132;2023-05-10T13:49:07;0.40;;;0.40;;
8177;SDS011;4130;48.740;9.132;2023-05-10T13:51:37;0.40;;;0.40;;
8177;SDS011;4130;48.740;9.132;2023-05-10T13:54:05;0.43;;;0.43;;
8177;SDS011;4130;48.740;9.132;2023-05-10T13:56:32;0.68;;;0.50;;
8177;SDS011;4130;48.740;9.132;2023-05-10T13:58:59;0.40;;;0.40;;
8177;SDS011;4130;48.740;9.132;2023-05-10T14:01:26;0.32;;;0.32;;
8177;SDS011;4130;48.740;9.132;2023-05-10T14:03:53;0.50;;;0.50;;
8177;SDS011;4130;48.740;9.132;2023-05-10T14:06:20;2.22;;;0.80;;
8177;SDS011;4130;48.740;9.132;2023-05-10T14:08:48;0.40;;;0.40;;
8177;SDS011;4130;48.740;9.132;2023-05-10T14:11:15;0.68;;;0.68;;
8177;SDS011;4130;48.740;9.132;2023-05-10T14:13:42;0.50;;;0.50;;
8177;SDS011;4130;48.740;9.132;2023-05-10T14:16:09;0.47;;;0.32;;
8177;SDS011;4130;48.740;9.132;2023-05-10T14:18:36;1.33;;;0.57;;
8177;SDS011;4130;48.740;9.132;2023-05-10T14:21:03;0.30;;;0.30;;
8177;SDS011;4130;48.740;9.132;2023-05-10T14:23:30;0.50;;;0.50;;
8177;SDS011;4130;48.740;9.132;2023-05-10T14:25:58;0.77;;;0.40;;
8177;SDS011;4130;48.740;9.132;2023-05-10T14:28:25;0.30;;;0.30;;
8177;SDS011;4130;48.740;9.132;2023-05-10T14:30:52;0.38;;;0.17;;
8177;SDS011;4130;48.740;9.132;2023-05-10T14:33:18;0.80;;;0.40;;
8177;SDS011;4130;48.740;9.132;2023-05-10T14:35:45;0.88;;;0.40;;
8177;SDS011;4130;48.740;9.132;2023-05-10T14:38:12;0.88;;;0.38;;
8177;SDS011;4130;48.740;9.132;2023-05-10T14:40:39;0.60;;;0.60;;
8177;SDS011;4130;48.740;9.132;2023-05-10T14:43:08;0.50;;;0.50;;
8177;SDS011;4130;48.740;9.132;2023-05-10T14:45:35;1.38;;;0.32;;
8177;SDS011;4130;48.740;9.132;2023-05-10T14:48:02;0.30;;;0.30;;
8177;SDS011;4130;48.740;9.132;2023-05-10T14:50:29;0.35;;;0.35;;
8177;SDS011;4130;48.740;9.132;2023-05-10T14:52:56;0.30;;;0.30;;
8177;SDS011;4130;48.740;9.132;2023-05-10T14:55:23;0.88;;;0.30;;
8177;SDS011;4130;48.740;9.132;2023-05-10T14:57:50;0.65;;;0.40;;
8177;SDS011;4130;48.740;9.132;2023-05-10T15:00:19;0.40;;;0.40;;
8177;SDS011;4130;48.740;9.132;2023-05-10T15:02:46;0.40;;;0.40;;
8177;SDS011;4130;48.740;9.132;2023-05-10T15:05:14;0.30;;;0.30;;
8177;SDS011;4130;48.740;9.132;2023-05-10T15:07:41;0.85;;;0.65;;
8177;SDS011;4130;48.740;9.132;2023-05-10T15:10:09;0.52;;;0.52;;
8177;SDS011;4130;48.740;9.132;2023-05-10T15:12:39;1.17;;;0.50;;
8177;SDS011;4130;48.740;9.132;2023-05-10T15:15:07;0.70;;;0.40;;
8177;SDS011;4130;48.740;9.132;2023-05-10T15:17:35;0.50;;;0.50;;
8177;SDS011;4130;48.740;9.132;2023-05-10T15:20:02;1.05;;;0.75;;
8177;SDS011;4130;48.740;9.132;2023-05-10T15:22:30;0.40;;;0.40;;
8177;SDS011;4130;48.740;9.132;2023-05-10T15:24:57;0.22;;;0.22;;
8177;SDS011;4130;48.740;9.132;2023-05-10T15:27:24;0.35;;;0.28;;
8177;SDS011;4130;48.740;9.132;2023-05-10T15:29:51;0.40;;;0.40;;
8177;SDS011;4130;48.740;9.132;2023-05-10T15:32:19;0.70;;;0.50;;